• Join FlightAware (Why Join?)
  • Login
  • US Flag 
01:53AM EDT


 

Airport Tracker/Info


-or-


 

Live Flight TrackerFlight Track Log ✈ SEJ345 ✈ 08-May-2013 ✈ VAAH / AMD - VAPO / PNQ

Flight Track Log - Related Links

Times and Time Zones

All times are in EDT time to prevent confusion due to time zone crossing. See the SEJ345 flight status page for this flight to view local times or setup timezone preferences in your user account.

Time Position Orientation Groundspeed Altitude Reporting Facility
EDT Latitude Longitude Course Direction KTS MPH feet Rate Location/Type
12:22PM 21.6740 72.2090 166° South 408 470 31,000  Level FlightAware
12:23PM 21.6030 72.2270 167° South 406 467 31,000  Level FlightAware
12:23PM 21.5470 72.2420 166° South 406 467 31,000  Level FlightAware
12:24PM 21.4440 72.2690 166° South 404 465 31,000  Level FlightAware
12:25PM 21.3460 72.2940 167° South 403 464 31,000  Level FlightAware
12:26PM 21.2810 72.3120 166° South 403 464 31,000  Level FlightAware
12:26PM 21.2000 72.3320 167° South 402 463 31,000  Level FlightAware
12:27PM 21.1430 72.3470 166° South 402 463 31,000  Level FlightAware
12:28PM 21.0390 72.3740 166° South 402 463 31,000  Level FlightAware
12:29PM 20.9640 72.3940 166° South 403 464 31,000  Level FlightAware
12:29PM 20.8920 72.4120 167° South 405 466 31,000  Level FlightAware
12:30PM 20.8180 72.4320 166° South 407 468 31,000  Level FlightAware
12:31PM 20.7590 72.4470 167° South 408 470 31,000  Level FlightAware
12:32PM 20.6360 72.4780 167° South 409 471 31,000  Level FlightAware
12:32PM 20.5530 72.5000 166° South 410 472 31,000  Level FlightAware
12:33PM 20.4780 72.5190 167° South 410 472 31,000  Level FlightAware
12:34PM 20.4150 72.5350 167° South 409 471 31,000  Level FlightAware
12:34PM 20.3200 72.5600 166° South 409 471 31,000  Level FlightAware
12:35PM 20.2470 72.5790 166° South 409 471 31,000  Level FlightAware
12:36PM 20.1740 72.6050 162° South 413 475 31,000  Level FlightAware
12:37PM 20.1000 72.6490 151° Southeast 414 476 31,000  Level FlightAware
12:37PM 20.0340 72.6890 150° Southeast 413 475 31,000  Level FlightAware
12:38PM 19.9660 72.7290 151° Southeast 412 474 31,000  Level FlightAware
12:39PM 19.8920 72.7730 151° Southeast 411 473 31,000 -300 Level FlightAware
12:39PM 19.8230 72.8150 150° Southeast 410 472 30,600 -900 Descending FlightAware
12:40PM 19.7510 72.8580 151° Southeast 402 463 29,800 -1,020 Descending FlightAware
12:41PM 19.6860 72.8970 151° Southeast 394 453 29,200 -1,020 Descending FlightAware
12:41PM 19.6220 72.9520 141° Southeast 394 453 28,400 -1,080 Descending FlightAware
12:42PM 19.5680 73.0030 138° Southeast 389 448 27,700 -1,020 Descending FlightAware
12:43PM 19.5130 73.0540 139° Southeast 386 444 27,100 -1,320 Descending FlightAware
12:43PM 19.4600 73.1020 140° Southeast 379 436 26,000 -1,740 Descending FlightAware
12:44PM 19.4020 73.1570 138° Southeast 373 429 24,700 -1,800 Descending FlightAware
12:45PM 19.3510 73.2040 139° Southeast 367 422 23,500 -1,800 Descending FlightAware
12:46PM 19.2920 73.2580 139° Southeast 362 417 22,200 -1,800 Descending FlightAware
12:46PM 19.2420 73.3040 139° Southeast 357 411 21,000 -1,920 Descending FlightAware
12:47PM 19.1880 73.3540 139° Southeast 360 414 19,500 -1,320 Descending FlightAware
12:48PM 19.1470 73.3930 138° Southeast 359 413 19,300 -1,620 Descending FlightAware
12:48PM 19.0900 73.4450 139° Southeast 343 395 17,400 -2,220 Descending FlightAware
12:49PM 19.0360 73.4970 138° Southeast 338 389 16,000 -1,980 Descending FlightAware
12:50PM 19.0000 73.5520 125° Southeast 339 390 14,600 -1,920 Descending FlightAware
12:51PM 18.9610 73.6120 124° Southeast 332 382 13,300 -1,740 Descending FlightAware
12:51PM 18.9330 73.6550 125° Southeast 327 376 12,300 -1,680 Descending FlightAware
12:52PM 18.8940 73.7190 123° Southeast 316 364 11,100 -1,020 Descending FlightAware
12:53PM 18.8620 73.7700 124° Southeast 284 327 10,800 -480 Descending FlightAware
12:53PM 18.8330 73.8170 123° Southeast 253 291 10,500 -600 Descending FlightAware
12:54PM 18.8100 73.8550 123° Southeast 243 280 10,000 -900 Descending FlightAware
12:54PM 18.7900 73.8860 124° Southeast 239 275 9,500 -1,080 Descending FlightAware
12:55PM 18.7800 73.9010 125° Southeast 239 275 9,200 -960 Descending FlightAware
12:55PM 18.7630 73.9280 124° Southeast 237 273 8,800 -1,020 Descending FlightAware
12:56PM 18.7430 73.9580 125° Southeast 234 269 8,200 -1,140 Descending FlightAware
12:56PM 18.7270 73.9810 126° Southeast 232 267 7,800 -1,020 Descending FlightAware
12:57PM 18.7110 74.0050 125° Southeast 235 270 7,300 -1,140 Descending FlightAware
12:57PM 18.6910 74.0340 126° Southeast 236 272 6,800 -1,200 Descending FlightAware
12:57PM 18.6820 74.0470 126° Southeast 236 272 6,500 -1,080 Descending FlightAware
12:58PM 18.6640 74.0750 124° Southeast 239 275 6,000 -1,080 Descending FlightAware
12:58PM 18.6570 74.0920 113° Southeast 236 272 5,700 -1,200 Descending FlightAware
12:58PM 18.6530 74.1010 115° Southeast 236 272 5,500 -780 Descending FlightAware
12:59PM 18.6410 74.1330 112° Southeast 221 254 5,200 -540 Descending FlightAware
12:59PM 18.6320 74.1430 134° Southeast 215 247 5,100 -720 Descending FlightAware
12:59PM 18.6230 74.1470 157° South 215 247 4,900 -1,200 Descending FlightAware
01:00PM 18.5970 74.1350 204° Southwest 195 224 4,300 -960 Descending FlightAware
01:00PM 18.5910 74.1220 244° Southwest 185 213 4,200 -540 Descending FlightAware
01:00PM 18.5840 74.0980 253° West 167 192 3,900 -480 Descending FlightAware
01:01PM 18.5830 74.0790 267° West 163 188 3,800  Descending FlightAware
01:01PM 18.5830 74.0560 270° West 154 177 3,900  Climbing FlightAware
01:02PM 18.5830 74.0320 270° West 143 165 3,800 -360 Descending FlightAware
01:02PM 18.5830 74.0160 270° West 142 163 3,600 -660 Descending FlightAware
01:03PM 18.5830 73.9950 270° West 143 165 3,200 -780 Descending FlightAware
01:03PM 18.5820 73.9770 267° West 138 159 2,900 -780 Descending FlightAware
01:04PM 18.5800 73.9600 263° West 139 160 2,500 -840 Descending FlightAware
01:04PM 18.5810 73.9480 275° West 139 160 2,300 -780 Descending FlightAware
01:04PM 18.5820 73.9310 274° West 141 162 2,000 -720 Descending FlightAware
01:08PM 18.5821 73.9197 96° East  Level Estimated
01:09PM 18.5821 73.9197 289° West  Level Estimated
01:10PM 18.5821 73.9197 289° West  Level Estimated
01:11PM 18.5821 73.9197 289° West  Level Estimated
01:12PM 18.5821 73.9197 289° West  Level Estimated
01:13PM 18.5821 73.9197 289° West  Level Estimated
01:14PM 18.5821 73.9197 289° West  Level Estimated
01:15PM 18.5821 73.9197 289° West  Level Estimated
01:16PM 18.5821 73.9197 289° West  Level Estimated
01:17PM 18.5821 73.9197 289° West  Level Estimated
01:18PM 18.5821 73.9197 289° West  Level Estimated
01:19PM 18.5821 73.9197 289° West  Level Estimated
01:20PM 18.5821 73.9197 289° West  Level Estimated
01:21PM 18.5821 73.9197 289° West  Level Estimated
01:22PM 18.5821 73.9197 289° West  Level Estimated
01:23PM 18.5821 73.9197 289° West  Level Estimated
01:24PM 18.5821 73.9197 289° West  Level Estimated
01:25PM 18.5821 73.9197 289° West  Level Estimated
01:26PM 18.5821 73.9197 289° West  Level Estimated